world map with SEZ marked

SEZ - Airport

This information may not be accurate or current and is not valid for navigation or flight planning. No warranty of fitness for any purpose is made or implied.

flag of Seychelles

Donate via PayPal

Additional information is available on the NEW Great Circle Mapper

Location
City:  Mahé, Mahé Island, Pointe Larue (Pointe La Rue;Pwent Lari), Seychelles
Near (Alt.):Victoria
Name:Seychelles International Airport
ICAO / IATA:FSIA / SEZ

Details
Type:Airport (Aerodrome, Airfield)
Use:Public/Civil
Latitude:4°40'28"S (-4.674341)
Longitude:55°31'19"E (55.521839)
Datum:WGS 1984
Elevation:10 ft (3 m)
Runways:1
Longest:9800 × 151 ft (2987 × 46 m)

Time
Timezone:UTC+4 (DST+6)
Local Time:

Weather
METAR:FSIA  041400Z 32007KT 9999 BKN025 29/24 Q1010 NOSIG
TAF:FSIA  040502Z 0406/0506 33012KT 9999 SCT024= TAF KSVN 040500Z 0405/0511 31006KT 9999 BKN009 QNH3000INS BECMG 0407/0408 31006KT 9999 SCT015 QNH3005INS BECMG 0415/0416 31006KT 9999 FEW120 QNH3005INS TX21/0420Z TN08/0412Z

Related Locations
Nearby:
Farthest:UAH: 11043 mi / 17772 km
Ua Huka, Marquesas Islands, PF

Find:

   beyond  
but within

Other Information
Maps:
Sources:

  


 


Great Circle Mapper   Great Circle Mapper
Great Circle Mapper FAQ   Great Circle Mapper FAQ
  Karl's Home Page
KLS²   KLS² Home
   GC on Facebook
Airlines of the World   Airlines of the World
Donate via PayPal


Copyright © 2004-2019, Karl L. Swartz. All rights reserved.
All trademarks mentioned herein belong to their respective owners.

Please see credits for attribution and copyright information.

Karl Swartz <karl@kls2.com>
  Powered by FreeBSD
Valid HTML 4.01!
Labeled with ICRA
hCard Microformat
Geo Microformat